createdAt,value
2019-03-27T00:00:42.030Z,23.57
2019-03-27T00:03:10.586Z,21.20
2019-03-27T00:05:39.146Z,26.03
2019-03-27T00:08:07.594Z,23.23
2019-03-27T00:10:36.103Z,28.83
2019-03-27T00:13:04.823Z,26.30
2019-03-27T00:15:33.739Z,25.60
2019-03-27T00:18:02.185Z,26.03
2019-03-27T00:20:30.715Z,22.73
2019-03-27T00:22:59.205Z,24.70
2019-03-27T00:25:27.693Z,23.10
2019-03-27T00:27:56.151Z,22.20
2019-03-27T00:30:24.619Z,25.83
2019-03-27T00:32:53.103Z,25.20
2019-03-27T00:35:21.845Z,24.83
2019-03-27T00:37:50.377Z,25.37
2019-03-27T00:40:18.876Z,24.83
2019-03-27T00:42:47.373Z,23.30
2019-03-27T00:45:26.601Z,25.87
2019-03-27T00:47:46.623Z,23.93
2019-03-27T00:50:15.209Z,27.73
2019-03-27T00:52:43.675Z,25.37
2019-03-27T00:55:12.707Z,23.47
2019-03-27T00:57:41.499Z,23.30
2019-03-27T01:00:22.042Z,22.40
2019-03-27T01:02:50.503Z,24.67
2019-03-27T01:05:18.975Z,24.60
2019-03-27T01:07:47.425Z,23.50
2019-03-27T01:10:16.723Z,25.60
2019-03-27T01:12:45.194Z,25.63
2019-03-27T01:15:13.925Z,24.57
2019-03-27T01:17:42.386Z,25.13
2019-03-27T01:20:11.197Z,26.33
2019-03-27T01:22:39.929Z,24.50
2019-03-27T01:25:08.655Z,21.80
2019-03-27T01:27:37.135Z,23.40
2019-03-27T01:30:06.236Z,25.87
2019-03-27T01:32:34.719Z,25.03
2019-03-27T01:35:03.271Z,27.37
2019-03-27T01:37:31.759Z,24.03
2019-03-27T01:40:00.371Z,26.80
2019-03-27T01:42:29.213Z,25.33
2019-03-27T01:44:57.732Z,26.03
2019-03-27T01:47:26.498Z,22.63
2019-03-27T01:49:54.973Z,26.83
2019-03-27T01:52:23.451Z,27.57
2019-03-27T01:54:51.941Z,30.17
2019-03-27T01:57:20.394Z,28.40
2019-03-27T01:59:48.870Z,28.17
2019-03-27T02:02:17.360Z,29.03
2019-03-27T02:04:45.819Z,26.57
2019-03-27T02:07:14.307Z,25.47
2019-03-27T02:09:42.771Z,27.13
2019-03-27T02:12:11.254Z,31.83
2019-03-27T02:14:39.706Z,29.73
2019-03-27T02:17:08.191Z,27.70
2019-03-27T02:19:36.641Z,30.90
2019-03-27T02:22:05.204Z,26.37
2019-03-27T02:24:33.749Z,26.63
2019-03-27T02:27:02.257Z,31.73
2019-03-27T02:29:30.719Z,30.90
2019-03-27T02:31:59.512Z,31.30
2019-03-27T02:34:28.000Z,29.40
2019-03-27T02:36:56.470Z,29.10
2019-03-27T02:39:25.006Z,28.77
2019-03-27T02:41:53.481Z,34.77
2019-03-27T02:44:21.947Z,31.80
2019-03-27T02:46:50.420Z,31.40
2019-03-27T02:49:19.278Z,33.07
2019-03-27T02:51:48.148Z,33.53
2019-03-27T02:54:16.602Z,29.27
2019-03-27T02:56:45.088Z,29.53
2019-03-27T02:59:13.548Z,35.87
2019-03-27T03:01:42.390Z,35.40
2019-03-27T03:04:11.002Z,33.13
2019-03-27T03:06:39.454Z,33.00
2019-03-27T03:09:08.274Z,34.00
2019-03-27T03:11:36.767Z,34.87
2019-03-27T03:14:05.364Z,33.80
2019-03-27T03:16:42.345Z,32.83
2019-03-27T03:19:04.055Z,33.97
2019-03-27T03:21:32.531Z,36.80
2019-03-27T03:24:00.995Z,32.57
2019-03-27T03:26:29.559Z,31.07
2019-03-27T03:28:58.006Z,35.83
2019-03-27T03:31:26.827Z,31.10
2019-03-27T03:33:55.331Z,32.93
2019-03-27T03:36:23.845Z,34.40
2019-03-27T03:38:52.307Z,31.97
2019-03-27T03:41:20.806Z,32.37
2019-03-27T03:43:49.267Z,33.53
2019-03-27T03:46:17.892Z,33.37
2019-03-27T03:48:46.390Z,33.63
2019-03-27T03:51:15.725Z,35.40
2019-03-27T03:53:44.402Z,37.57
2019-03-27T03:56:14.847Z,37.10
2019-03-27T03:58:43.667Z,33.77
2019-03-27T04:01:12.317Z,35.90
2019-03-27T04:03:42.543Z,34.00
2019-03-27T04:06:11.046Z,34.30
2019-03-27T04:08:39.499Z,31.70
2019-03-27T04:11:07.988Z,34.40
2019-03-27T04:13:36.457Z,36.87
2019-03-27T04:16:05.391Z,37.57
2019-03-27T04:18:34.000Z,33.40
2019-03-27T04:21:02.494Z,35.93
2019-03-27T04:23:30.955Z,34.30
2019-03-27T04:26:09.676Z,33.57
2019-03-27T04:28:29.623Z,31.83
2019-03-27T04:30:58.102Z,33.87
2019-03-27T04:33:26.561Z,34.73
2019-03-27T04:35:55.039Z,35.77
2019-03-27T04:38:23.529Z,33.97
2019-03-27T04:40:51.996Z,33.80
2019-03-27T04:43:20.479Z,34.67
2019-03-27T04:45:48.945Z,32.63
2019-03-27T04:48:17.417Z,36.77
2019-03-27T04:50:46.254Z,35.77
2019-03-27T04:53:14.726Z,33.37
2019-03-27T04:55:43.179Z,34.10
2019-03-27T04:58:11.655Z,37.33
2019-03-27T05:00:40.489Z,37.87
2019-03-27T05:03:09.030Z,35.20
2019-03-27T05:05:37.527Z,34.53
2019-03-27T05:08:05.985Z,37.60
2019-03-27T05:10:34.463Z,37.47
2019-03-27T05:13:02.919Z,35.57
2019-03-27T05:15:31.398Z,33.93
2019-03-27T05:17:59.859Z,36.40
2019-03-27T05:20:28.849Z,32.37
2019-03-27T05:22:57.564Z,35.50
2019-03-27T05:25:26.034Z,35.00
2019-03-27T05:27:54.509Z,33.33
2019-03-27T05:30:30.251Z,39.10
2019-03-27T05:32:58.843Z,36.80
2019-03-27T05:35:27.593Z,35.27
2019-03-27T05:37:56.216Z,37.47
2019-03-27T05:40:24.661Z,33.83
2019-03-27T05:43:00.695Z,38.33
2019-03-27T05:45:23.975Z,36.37
2019-03-27T05:47:59.539Z,34.50
2019-03-27T05:50:23.214Z,32.87
2019-03-27T05:52:51.699Z,34.70
2019-03-27T05:55:20.163Z,36.67
2019-03-27T05:57:48.653Z,38.10
2019-03-27T06:00:18.462Z,39.83
2019-03-27T06:02:46.935Z,39.10
2019-03-27T06:05:15.406Z,37.43
2019-03-27T06:07:43.905Z,38.67
2019-03-27T06:10:16.131Z,39.40
2019-03-27T06:12:43.240Z,34.73
2019-03-27T06:15:12.227Z,36.63
2019-03-27T06:17:40.677Z,36.97
2019-03-27T06:20:09.283Z,34.77
2019-03-27T06:22:37.767Z,41.57
2019-03-27T06:25:07.188Z,41.70
2019-03-27T06:27:35.657Z,38.17
2019-03-27T06:30:05.097Z,37.40
2019-03-27T06:32:33.578Z,38.77
2019-03-27T06:35:02.109Z,38.43
2019-03-27T06:37:30.610Z,37.93
2019-03-27T06:39:59.070Z,37.10
2019-03-27T06:42:27.537Z,39.57
2019-03-27T06:44:56.019Z,39.10
2019-03-27T06:47:24.480Z,39.70
2019-03-27T06:49:52.971Z,41.50
2019-03-27T06:52:21.445Z,39.70
2019-03-27T06:54:49.897Z,39.50
2019-03-27T06:57:18.460Z,37.70
2019-03-27T06:59:46.932Z,37.57
2019-03-27T07:02:15.407Z,36.63
2019-03-27T07:04:43.861Z,36.17
2019-03-27T07:07:12.703Z,37.70
2019-03-27T07:09:42.686Z,36.57
2019-03-27T07:12:20.894Z,37.93
2019-03-27T07:14:41.599Z,35.77
2019-03-27T07:17:10.050Z,40.07
2019-03-27T07:19:38.548Z,39.00
2019-03-27T07:22:07.032Z,39.20
2019-03-27T07:24:35.516Z,36.20
2019-03-27T07:27:03.973Z,40.10
2019-03-27T07:29:32.434Z,37.20
2019-03-27T07:32:01.182Z,37.10
2019-03-27T07:34:29.658Z,36.77
2019-03-27T07:36:58.126Z,36.13
2019-03-27T07:39:26.607Z,37.13
2019-03-27T07:41:55.098Z,41.13
2019-03-27T07:44:23.567Z,34.20
2019-03-27T07:46:52.125Z,37.57
2019-03-27T07:49:20.865Z,36.80
2019-03-27T07:51:49.331Z,36.47
2019-03-27T07:54:17.892Z,33.93
2019-03-27T07:56:46.354Z,33.47
2019-03-27T07:59:14.833Z,37.40
2019-03-27T08:01:43.329Z,38.97
2019-03-27T08:04:14.349Z,33.17
2019-03-27T08:06:42.090Z,30.33
2019-03-27T08:09:10.902Z,33.67
2019-03-27T08:11:39.421Z,35.90
2019-03-27T08:14:08.034Z,36.70
2019-03-27T08:16:36.853Z,35.53
2019-03-27T08:19:07.680Z,32.90
2019-03-27T08:21:35.544Z,31.47
2019-03-27T08:24:04.139Z,34.40
2019-03-27T08:26:32.610Z,29.97
2019-03-27T08:29:01.088Z,37.23
2019-03-27T08:31:29.551Z,31.80
2019-03-27T08:33:58.043Z,31.80
2019-03-27T08:36:26.517Z,28.27
2019-03-27T08:38:54.995Z,24.37
2019-03-27T08:41:23.456Z,22.30
2019-03-27T08:43:51.962Z,21.27
2019-03-27T08:46:20.479Z,26.10
2019-03-27T08:48:48.959Z,20.83
2019-03-27T08:51:17.414Z,22.93
2019-03-27T08:53:45.914Z,23.63
2019-03-27T08:56:14.392Z,24.33
2019-03-27T08:58:42.904Z,20.87
2019-03-27T09:01:11.364Z,22.63
2019-03-27T09:03:39.844Z,19.03
2019-03-27T09:06:08.736Z,20.20
2019-03-27T09:08:37.195Z,20.50
2019-03-27T09:11:05.682Z,18.33
2019-03-27T09:13:34.487Z,21.30
2019-03-27T09:16:03.040Z,20.43
2019-03-27T09:18:31.863Z,19.87
2019-03-27T09:21:00.369Z,19.50
2019-03-27T09:23:28.849Z,18.17
2019-03-27T09:25:57.335Z,18.40
2019-03-27T09:28:25.810Z,15.30
2019-03-27T09:30:54.586Z,15.87
2019-03-27T09:33:23.061Z,19.43
2019-03-27T09:35:51.581Z,15.87
2019-03-27T09:38:20.173Z,17.50
2019-03-27T09:40:48.689Z,15.83
2019-03-27T09:43:17.529Z,15.63
2019-03-27T09:45:46.053Z,13.57
2019-03-27T09:48:14.590Z,12.73
2019-03-27T09:50:43.065Z,14.73
2019-03-27T09:53:11.618Z,10.70
2019-03-27T09:55:40.154Z,10.10
2019-03-27T09:58:08.647Z,10.87
2019-03-27T10:00:48.250Z,12.20
2019-03-27T10:03:16.942Z,12.90
2019-03-27T10:05:45.410Z,12.83
2019-03-27T10:08:14.165Z,11.00
2019-03-27T10:10:42.637Z,10.53
2019-03-27T10:13:11.169Z,10.33
2019-03-27T10:15:39.957Z,11.67
2019-03-27T10:18:08.744Z,11.17
2019-03-27T10:20:37.220Z,8.43
2019-03-27T10:23:05.762Z,11.77
2019-03-27T10:25:34.233Z,11.83
2019-03-27T10:28:02.682Z,10.50
2019-03-27T10:30:31.225Z,9.70
2019-03-27T10:33:00.030Z,10.17
2019-03-27T10:35:28.496Z,10.27
2019-03-27T10:37:56.962Z,10.40
2019-03-27T10:40:25.436Z,9.73
2019-03-27T10:42:53.909Z,8.60
2019-03-27T10:45:22.364Z,9.93
2019-03-27T10:47:50.853Z,8.03
2019-03-27T10:50:19.722Z,9.27
2019-03-27T10:52:48.215Z,9.23
2019-03-27T10:55:16.730Z,9.43
2019-03-27T10:57:45.469Z,8.53
2019-03-27T11:00:14.397Z,7.40
2019-03-27T11:02:43.251Z,8.73
2019-03-27T11:05:12.138Z,7.73
2019-03-27T11:07:40.923Z,8.13
2019-03-27T11:10:09.743Z,7.10
2019-03-27T11:12:38.267Z,7.87
2019-03-27T11:15:11.521Z,8.40
2019-03-27T11:17:40.127Z,7.27
2019-03-27T11:20:09.239Z,7.43
2019-03-27T11:22:37.753Z,7.63
2019-03-27T11:25:07.072Z,6.83
2019-03-27T11:27:35.523Z,6.83
2019-03-27T11:30:08.384Z,6.87
2019-03-27T11:32:36.874Z,7.07
2019-03-27T11:35:05.603Z,7.03
2019-03-27T11:37:34.083Z,6.30
2019-03-27T11:40:02.801Z,6.93
2019-03-27T11:42:31.279Z,6.77
2019-03-27T11:44:59.727Z,6.27
2019-03-27T11:47:28.266Z,6.57
2019-03-27T11:49:56.734Z,8.27
2019-03-27T11:52:25.494Z,6.60
2019-03-27T11:54:54.071Z,7.63
2019-03-27T11:57:22.533Z,8.27
2019-03-27T11:59:54.280Z,7.60
2019-03-27T12:02:21.192Z,7.77
2019-03-27T12:04:49.657Z,7.70
2019-03-27T12:07:18.129Z,7.10
2019-03-27T12:09:46.637Z,7.90
2019-03-27T12:12:15.108Z,6.07
2019-03-27T12:14:43.580Z,7.03
2019-03-27T12:17:12.354Z,6.03
2019-03-27T12:19:40.797Z,7.30
2019-03-27T12:22:09.269Z,7.10
2019-03-27T12:24:37.768Z,7.47
2019-03-27T12:27:06.233Z,5.03
2019-03-27T12:29:34.708Z,6.03
2019-03-27T12:32:03.149Z,9.60
2019-03-27T12:34:31.932Z,5.70
2019-03-27T12:37:00.408Z,8.23
2019-03-27T12:39:29.026Z,8.50
2019-03-27T12:41:57.483Z,9.23
2019-03-27T12:44:25.960Z,6.30
2019-03-27T12:46:54.410Z,7.43
2019-03-27T12:49:22.897Z,7.20
2019-03-27T12:51:51.357Z,7.03
2019-03-27T12:54:19.831Z,6.60
2019-03-27T12:56:48.305Z,6.90
2019-03-27T12:59:17.147Z,7.20
2019-03-27T13:01:45.603Z,9.87
2019-03-27T13:04:14.083Z,7.00
2019-03-27T13:06:42.556Z,5.97
2019-03-27T13:09:11.005Z,7.87
2019-03-27T13:11:39.495Z,8.20
2019-03-27T13:14:07.976Z,7.30
2019-03-27T13:16:36.544Z,7.67
2019-03-27T13:19:04.998Z,6.83
2019-03-27T13:21:33.462Z,6.60
2019-03-27T13:24:01.909Z,6.33
2019-03-27T13:26:30.408Z,7.07
2019-03-27T13:28:58.858Z,9.73
2019-03-27T13:31:27.314Z,7.60
2019-03-27T13:33:55.799Z,7.20
2019-03-27T13:36:24.347Z,6.27
2019-03-27T13:38:53.163Z,7.23
2019-03-27T13:41:21.628Z,6.97
2019-03-27T13:43:50.101Z,5.60
2019-03-27T13:46:18.576Z,7.67
2019-03-27T13:48:47.035Z,7.73
2019-03-27T13:51:15.646Z,7.83
2019-03-27T13:53:44.116Z,7.40
2019-03-27T13:56:12.942Z,6.77
2019-03-27T13:58:41.424Z,7.87
2019-03-27T14:01:12.789Z,6.33
2019-03-27T14:03:40.101Z,7.73
2019-03-27T14:06:08.640Z,6.10
2019-03-27T14:08:37.192Z,5.07
2019-03-27T14:11:05.740Z,5.27
2019-03-27T14:13:34.210Z,6.93
2019-03-27T14:16:02.678Z,6.63
2019-03-27T14:18:31.432Z,8.13
2019-03-27T14:20:59.883Z,6.93
2019-03-27T14:23:28.369Z,5.47
2019-03-27T14:25:56.830Z,6.47
2019-03-27T14:28:25.360Z,7.97
2019-03-27T14:30:55.985Z,8.20
2019-03-27T14:33:24.505Z,6.97
2019-03-27T14:35:53.478Z,6.87
2019-03-27T14:38:22.434Z,8.37
2019-03-27T14:40:51.087Z,10.03
2019-03-27T14:43:19.643Z,7.33
2019-03-27T14:45:48.258Z,6.10
2019-03-27T14:48:16.803Z,6.37
2019-03-27T14:50:45.292Z,11.60
2019-03-27T14:53:13.885Z,4.73
2019-03-27T14:55:42.362Z,5.77
2019-03-27T14:58:10.841Z,5.97
2019-03-27T15:00:39.364Z,6.67
2019-03-27T15:03:07.901Z,6.87
2019-03-27T15:05:36.379Z,5.67
2019-03-27T15:08:05.224Z,5.63
2019-03-27T15:10:33.905Z,7.33
2019-03-27T15:13:02.649Z,5.70
2019-03-27T15:15:31.182Z,6.53
2019-03-27T15:17:59.665Z,5.33
2019-03-27T15:20:28.105Z,5.67
2019-03-27T15:22:56.557Z,4.30
2019-03-27T15:25:25.038Z,5.23
2019-03-27T15:27:53.933Z,5.27
2019-03-27T15:30:22.459Z,5.57
2019-03-27T15:32:50.914Z,8.37
2019-03-27T15:35:19.389Z,7.07
2019-03-27T15:37:47.859Z,5.60
2019-03-27T15:40:19.733Z,4.47
2019-03-27T15:42:48.187Z,4.73
2019-03-27T15:45:16.713Z,6.03
2019-03-27T15:47:45.183Z,5.97
2019-03-27T15:50:13.941Z,4.60
2019-03-27T15:52:42.429Z,6.10
2019-03-27T15:55:12.045Z,7.50
2019-03-27T15:57:40.759Z,7.17
2019-03-27T16:00:11.418Z,4.40
2019-03-27T16:02:39.891Z,5.57
2019-03-27T16:05:08.416Z,5.60
2019-03-27T16:07:36.894Z,6.30
2019-03-27T16:10:07.087Z,6.90
2019-03-27T16:12:36.442Z,5.83
2019-03-27T16:15:07.029Z,4.00
2019-03-27T16:17:35.866Z,5.47
2019-03-27T16:20:06.978Z,6.60
2019-03-27T16:22:49.501Z,7.43
2019-03-27T16:25:07.244Z,4.73
2019-03-27T16:27:35.706Z,5.00
2019-03-27T16:30:07.586Z,4.43
2019-03-27T16:32:36.069Z,4.60
2019-03-27T16:35:07.063Z,5.57
2019-03-27T16:37:35.529Z,6.37
2019-03-27T16:40:05.891Z,6.37
2019-03-27T16:42:34.490Z,5.93
2019-03-27T16:45:03.745Z,5.73
2019-03-27T16:47:32.191Z,4.73
2019-03-27T16:50:00.661Z,4.00
2019-03-27T16:52:29.135Z,3.67
2019-03-27T16:54:57.621Z,4.17
2019-03-27T16:57:26.410Z,7.13
2019-03-27T16:59:54.872Z,13.57
2019-03-27T17:02:23.569Z,9.73
2019-03-27T17:04:52.369Z,8.83
2019-03-27T17:07:20.899Z,7.30
2019-03-27T17:09:49.654Z,11.67
2019-03-27T17:12:18.107Z,10.57
2019-03-27T17:14:46.660Z,10.07
2019-03-27T17:17:15.495Z,7.80
2019-03-27T17:19:43.969Z,5.77
2019-03-27T17:22:19.409Z,4.37
2019-03-27T17:24:43.002Z,5.40
2019-03-27T17:27:11.462Z,5.47
2019-03-27T17:29:39.938Z,5.47
2019-03-27T17:32:08.407Z,6.43
2019-03-27T17:34:36.902Z,5.00
2019-03-27T17:37:05.497Z,5.00
2019-03-27T17:39:33.962Z,5.13
2019-03-27T17:42:02.414Z,5.33
2019-03-27T17:44:30.876Z,5.70
2019-03-27T17:46:59.359Z,4.30
2019-03-27T17:49:27.852Z,5.73
2019-03-27T17:51:58.679Z,4.83
2019-03-27T17:54:26.838Z,5.40
2019-03-27T17:56:55.310Z,5.30
2019-03-27T17:59:23.786Z,7.03
2019-03-27T18:01:52.259Z,5.80
2019-03-27T18:04:20.730Z,5.43
2019-03-27T18:06:49.192Z,6.77
2019-03-27T18:09:17.677Z,6.40
2019-03-27T18:11:46.141Z,4.83
2019-03-27T18:14:14.630Z,5.93
2019-03-27T18:16:43.093Z,5.27
2019-03-27T18:19:11.564Z,6.47
2019-03-27T18:21:40.055Z,6.47
2019-03-27T18:24:08.510Z,7.03
2019-03-27T18:26:36.979Z,6.43
2019-03-27T18:29:05.537Z,6.77
2019-03-27T18:31:34.246Z,5.53
2019-03-27T18:34:02.721Z,6.43
2019-03-27T18:36:31.273Z,6.27
2019-03-27T18:38:59.763Z,7.50
2019-03-27T18:41:28.263Z,6.27
2019-03-27T18:43:56.703Z,7.07
2019-03-27T18:46:25.174Z,7.37
2019-03-27T18:48:53.736Z,6.13
2019-03-27T18:51:22.371Z,6.43
2019-03-27T18:53:59.485Z,7.17
2019-03-27T18:56:21.129Z,6.47
2019-03-27T18:58:49.759Z,6.33
2019-03-27T19:01:18.239Z,6.57
2019-03-27T19:03:46.745Z,4.90
2019-03-27T19:06:15.483Z,5.30
2019-03-27T19:08:43.967Z,7.13
2019-03-27T19:11:12.444Z,8.87
2019-03-27T19:13:41.427Z,8.27
2019-03-27T19:16:10.313Z,3.77
2019-03-27T19:18:38.766Z,7.53
2019-03-27T19:21:07.307Z,6.93
2019-03-27T19:23:35.775Z,4.40
2019-03-27T19:26:04.851Z,6.10
2019-03-27T19:28:33.333Z,7.57
2019-03-27T19:31:01.883Z,7.00
2019-03-27T19:33:30.347Z,5.97
2019-03-27T19:35:58.905Z,8.57
2019-03-27T19:38:27.387Z,4.77
2019-03-27T19:40:55.859Z,5.73
2019-03-27T19:43:24.353Z,5.27
2019-03-27T19:45:52.955Z,5.83
2019-03-27T19:48:21.415Z,7.50
2019-03-27T19:50:50.171Z,6.30
2019-03-27T19:53:18.638Z,7.83
2019-03-27T19:55:47.098Z,7.93
2019-03-27T19:58:15.757Z,7.67
2019-03-27T20:00:44.274Z,7.73
2019-03-27T20:03:12.826Z,6.23
2019-03-27T20:05:41.317Z,7.17
2019-03-27T20:08:09.775Z,5.60
2019-03-27T20:10:38.252Z,7.50
2019-03-27T20:13:06.716Z,6.17
2019-03-27T20:15:35.231Z,4.80
2019-03-27T20:18:03.935Z,7.77
2019-03-27T20:20:32.481Z,7.43
2019-03-27T20:23:13.921Z,7.60
2019-03-27T20:25:31.188Z,6.20
2019-03-27T20:27:59.677Z,6.17
2019-03-27T20:30:28.397Z,10.30
2019-03-27T20:32:57.103Z,5.70
2019-03-27T20:35:25.580Z,4.73
2019-03-27T20:37:54.038Z,4.97
2019-03-27T20:40:22.585Z,6.83
2019-03-27T20:42:52.439Z,6.07
2019-03-27T20:45:21.061Z,6.90
2019-03-27T20:47:49.542Z,4.70
2019-03-27T20:50:18.486Z,7.13
2019-03-27T20:52:47.034Z,5.50
2019-03-27T20:55:29.267Z,7.77
2019-03-27T20:57:45.809Z,5.67
2019-03-27T21:00:15.218Z,5.57
2019-03-27T21:02:43.675Z,5.73
2019-03-27T21:05:12.224Z,6.77
2019-03-27T21:07:41.005Z,7.60
2019-03-27T21:10:11.269Z,5.47
2019-03-27T21:12:39.757Z,9.10
2019-03-27T21:15:08.755Z,6.90
2019-03-27T21:17:37.222Z,7.23
2019-03-27T21:20:06.509Z,5.60
2019-03-27T21:22:35.045Z,6.23
2019-03-27T21:25:09.207Z,5.93
2019-03-27T21:27:35.021Z,5.27
2019-03-27T21:30:05.589Z,7.10
2019-03-27T21:32:34.025Z,6.13
2019-03-27T21:35:02.516Z,3.87
2019-03-27T21:37:31.031Z,5.70
2019-03-27T21:39:59.478Z,5.50
2019-03-27T21:42:27.941Z,6.13
2019-03-27T21:44:56.420Z,6.13
2019-03-27T21:47:24.884Z,5.00
2019-03-27T21:49:53.367Z,3.97
2019-03-27T21:52:21.837Z,5.60
2019-03-27T21:54:50.314Z,5.33
2019-03-27T21:57:18.796Z,6.23
2019-03-27T21:59:47.834Z,4.77
2019-03-27T22:02:16.722Z,4.70
2019-03-27T22:04:45.174Z,4.40
2019-03-27T22:07:13.650Z,6.27
2019-03-27T22:09:42.116Z,5.87
2019-03-27T22:12:10.584Z,6.27
2019-03-27T22:14:39.062Z,5.77
2019-03-27T22:17:07.506Z,6.17
2019-03-27T22:19:35.996Z,7.37
2019-03-27T22:22:04.445Z,6.47
2019-03-27T22:24:32.927Z,6.17
2019-03-27T22:27:01.740Z,4.87
2019-03-27T22:29:30.215Z,4.50
2019-03-27T22:31:58.671Z,5.53
2019-03-27T22:34:27.494Z,41.03
2019-03-27T22:36:56.195Z,16.87
2019-03-27T22:39:24.665Z,41.77
2019-03-27T22:41:53.161Z,42.80
2019-03-27T22:44:21.937Z,123.10
2019-03-27T22:46:50.491Z,117.73
2019-03-27T22:49:18.990Z,80.07
2019-03-27T22:51:47.481Z,55.10
2019-03-27T22:54:15.953Z,31.63
2019-03-27T22:56:44.437Z,22.50
2019-03-27T22:59:13.233Z,9.90
2019-03-27T23:01:46.264Z,7.87
2019-03-27T23:04:14.898Z,8.33
2019-03-27T23:06:43.349Z,6.70
2019-03-27T23:09:12.166Z,8.10
2019-03-27T23:11:40.704Z,10.67
2019-03-27T23:14:09.199Z,5.63
2019-03-27T23:16:37.927Z,7.70
2019-03-27T23:19:06.503Z,8.37
2019-03-27T23:21:34.959Z,10.30
2019-03-27T23:24:03.419Z,12.00
2019-03-27T23:26:31.898Z,10.57
2019-03-27T23:29:00.352Z,11.90
2019-03-27T23:31:29.109Z,11.80
2019-03-27T23:33:59.395Z,9.73
2019-03-27T23:36:27.757Z,10.47
2019-03-27T23:38:56.229Z,15.20
2019-03-27T23:41:24.996Z,11.77
2019-03-27T23:43:53.889Z,11.73
2019-03-27T23:46:22.365Z,9.40
2019-03-27T23:48:50.813Z,10.67
2019-03-27T23:51:19.565Z,9.57
2019-03-27T23:53:48.033Z,9.13
2019-03-27T23:56:17.219Z,8.33
2019-03-27T23:58:45.868Z,8.47
